Time;durP1;ratioP1;P1;durP2;ratioP2;P2;SDS_P1;SDS_P2;PMS_P1;PMS_P2;Temp;Humidity;BMP_temperature;BMP_pressure;BME280_temperature;BME280_humidity;BME280_pressure;Samples;Min_cycle;Max_cycle;Signal;HPM_P1;HPM_P2
2024/01/05 00:01:19;;;;;;;6.93;3.72;;;;;;;5.91;71.91;97556.69;4947939;28;103507;-76
2024/01/05 00:03:47;;;;;;;9.77;4.30;;;;;;;5.94;71.83;97556.34;4948151;28;103209;-76
2024/01/05 00:06:15;;;;;;;7.90;3.80;;;;;;;5.92;71.96;97543.38;4950399;28;102749;-75
2024/01/05 00:08:45;;;;;;;6.22;3.80;;;;;;;5.94;71.68;97535.31;4949455;28;102620;-77
2024/01/05 00:11:17;;;;;;;7.07;3.72;;;;;;;5.94;71.50;97530.06;4947440;28;105057;-77
2024/01/05 00:13:45;;;;;;;5.80;3.50;;;;;;;5.94;71.24;97530.06;4962522;28;105031;-76
2024/01/05 00:16:18;;;;;;;9.77;4.90;;;;;;;5.92;71.67;97521.53;4943662;28;102670;-75
2024/01/05 00:18:46;;;;;;;7.95;3.70;;;;;;;5.89;71.56;97527.13;4943950;28;102719;-76
2024/01/05 00:21:21;;;;;;;7.47;4.15;;;;;;;5.89;71.18;97517.41;4945921;28;104351;-76
2024/01/05 00:23:50;;;;;;;7.97;3.78;;;;;;;5.90;71.29;97513.00;4954374;28;103298;-76
2024/01/05 00:26:18;;;;;;;7.03;4.00;;;;;;;5.91;71.26;97509.41;4956128;28;102998;-75
2024/01/05 00:28:47;;;;;;;7.40;3.85;;;;;;;5.89;71.06;97500.84;4951856;28;102803;-75
2024/01/05 00:31:18;;;;;;;6.22;3.75;;;;;;;5.82;71.42;97496.25;4946466;28;103280;-76
2024/01/05 00:33:46;;;;;;;7.45;3.72;;;;;;;5.84;71.20;97497.91;4945962;28;103215;-76
2024/01/05 00:36:14;;;;;;;8.50;4.18;;;;;;;5.79;71.46;97491.34;4946975;28;102704;-76
2024/01/05 00:38:47;;;;;;;9.32;5.15;;;;;;;5.84;71.54;97492.66;4949178;28;102750;-76
2024/01/05 00:41:15;;;;;;;9.37;4.60;;;;;;;5.84;70.71;97495.28;4947175;28;104609;-76
2024/01/05 00:43:43;;;;;;;6.22;3.03;;;;;;;5.84;71.11;97496.06;4957926;28;103291;-76
2024/01/05 00:46:11;;;;;;;6.70;3.70;;;;;;;5.87;71.07;97497.56;4942618;28;103367;-75
2024/01/05 00:48:40;;;;;;;6.15;3.28;;;;;;;5.88;71.33;97504.47;4949120;28;102807;-76
2024/01/05 00:51:09;;;;;;;9.88;5.07;;;;;;;5.89;70.34;97513.97;4942285;28;104626;-75
2024/01/05 00:53:39;;;;;;;9.35;3.70;;;;;;;5.83;70.79;97512.84;4951602;28;103790;-76
2024/01/05 00:56:07;;;;;;;6.53;3.65;;;;;;;5.84;71.23;97513.66;4938999;28;103149;-75
2024/01/05 00:58:35;;;;;;;11.55;4.03;;;;;;;5.82;71.00;97506.75;4959678;28;103763;-76
2024/01/05 01:01:06;;;;;;;5.55;3.25;;;;;;;5.78;71.27;97502.84;4946893;28;103319;-75
2024/01/05 01:03:34;;;;;;;8.45;3.92;;;;;;;5.67;71.15;97503.16;4944357;28;103394;-76
2024/01/05 01:06:04;;;;;;;8.82;3.92;;;;;;;5.60;71.52;97516.16;4942658;28;102637;-76
2024/01/05 01:08:32;;;;;;;8.88;3.50;;;;;;;5.65;71.58;97523.53;4949650;28;104142;-75
2024/01/05 01:11:01;;;;;;;6.88;2.65;;;;;;;5.64;71.10;97522.72;4946203;28;103348;-76
2024/01/05 01:13:29;;;;;;;9.63;4.03;;;;;;;5.59;71.46;97522.41;4946711;28;103294;-74
2024/01/05 01:15:57;;;;;;;6.50;3.00;;;;;;;5.60;71.72;97513.53;4957711;28;102639;-76
2024/01/05 01:18:26;;;;;;;8.35;3.67;;;;;;;5.64;71.45;97516.66;4961370;28;104138;-76
2024/01/05 01:20:54;;;;;;;4.47;3.03;;;;;;;5.59;71.77;97521.56;4947361;28;103065;-75
2024/01/05 01:23:23;;;;;;;6.72;3.03;;;;;;;5.58;71.50;97519.94;4945824;28;103325;-76
2024/01/05 01:25:51;;;;;;;9.70;3.67;;;;;;;5.54;71.81;97513.38;4940265;28;102981;-76
2024/01/05 01:28:19;;;;;;;12.73;4.95;;;;;;;5.26;71.89;97509.25;4956407;28;104224;-76
2024/01/05 01:30:47;;;;;;;10.93;4.45;;;;;;;5.04;72.46;97497.59;4951500;28;103462;-76
2024/01/05 01:33:15;;;;;;;9.75;4.10;;;;;;;5.01;73.33;97495.31;4949413;28;103338;-76
2024/01/05 01:35:43;;;;;;;7.10;3.47;;;;;;;5.13;73.06;97494.00;4943663;28;103030;-76
2024/01/05 01:38:11;;;;;;;9.15;3.83;;;;;;;5.10;73.16;97496.94;4949622;28;102634;-76
2024/01/05 01:40:45;;;;;;;12.23;5.10;;;;;;;5.10;72.86;97475.94;4959749;28;103349;-76
2024/01/05 01:43:18;;;;;;;10.50;4.43;;;;;;;5.00;73.67;97475.28;4934862;28;103397;-75
2024/01/05 01:45:46;;;;;;;12.13;4.68;;;;;;;5.04;73.30;97466.09;4948323;28;102599;-75
2024/01/05 01:48:15;;;;;;;12.35;4.68;;;;;;;5.08;73.52;97461.34;4946165;28;104081;-76
2024/01/05 01:50:44;;;;;;;6.90;2.97;;;;;;;5.20;73.27;97464.47;4947217;28;104360;-77
2024/01/05 01:53:14;;;;;;;8.48;3.90;;;;;;;5.28;73.11;97464.50;4948154;28;103279;-76
2024/01/05 01:55:43;;;;;;;7.72;4.05;;;;;;;5.30;72.78;97459.88;4945564;28;102610;-76
2024/01/05 01:58:13;;;;;;;7.60;3.05;;;;;;;5.33;72.86;97441.16;4943862;28;102728;-77
2024/01/05 02:00:41;;;;;;;10.88;4.00;;;;;;;5.39;72.84;97423.94;4940765;28;103214;-76
2024/01/05 02:03:09;;;;;;;7.40;3.30;;;;;;;5.43;72.69;97420.81;4944636;28;103190;-76
2024/01/05 02:05:38;;;;;;;7.30;3.33;;;;;;;5.48;72.31;97422.94;4950839;28;102672;-76
2024/01/05 02:08:06;;;;;;;8.13;3.80;;;;;;;5.49;72.35;97427.22;4936180;28;102743;-77
2024/01/05 02:10:34;;;;;;;5.85;3.50;;;;;;;5.54;72.06;97422.28;4948172;28;103477;-77
2024/01/05 02:13:04;;;;;;;9.52;4.07;;;;;;;5.59;72.08;97412.09;4940404;28;103263;-77
2024/01/05 02:15:32;;;;;;;5.70;3.78;;;;;;;5.62;71.95;97426.66;4947660;28;102769;-76
2024/01/05 02:18:10;;;;;;;6.30;3.55;;;;;;;5.64;71.86;97417.63;4946965;28;102723;-76
2024/01/05 02:20:38;;;;;;;6.20;4.25;;;;;;;5.65;71.62;97416.66;4939123;28;103377;-76
2024/01/05 02:23:16;;;;;;;6.43;3.38;;;;;;;5.66;71.65;97420.13;4935174;28;103434;-76
2024/01/05 02:25:45;;;;;;;8.35;4.15;;;;;;;5.67;71.43;97420.94;4941479;28;102660;-76
2024/01/05 02:28:13;;;;;;;5.80;3.65;;;;;;;5.63;71.79;97418.66;4944633;28;104194;-76
2024/01/05 02:30:41;;;;;;;11.80;4.88;;;;;;;5.70;71.50;97408.28;4941130;28;104144;-76
2024/01/05 02:33:09;;;;;;;7.85;3.95;;;;;;;5.70;71.25;97397.78;4951156;28;104183;-76
2024/01/05 02:35:37;;;;;;;6.68;3.50;;;;;;;5.71;71.54;97396.78;4933882;28;103017;-76
2024/01/05 02:38:06;;;;;;;7.88;3.80;;;;;;;5.75;71.52;97390.19;4950423;28;102593;-76
2024/01/05 02:40:34;;;;;;;11.70;4.03;;;;;;;5.73;71.54;97386.91;4944440;28;103411;-76
2024/01/05 02:43:03;;;;;;;10.00;4.50;;;;;;;5.77;70.86;97393.47;4946190;28;103196;-76
2024/01/05 02:45:32;;;;;;;6.85;3.72;;;;;;;5.77;71.27;97398.72;4951832;28;103382;-76
2024/01/05 02:48:01;;;;;;;11.02;4.45;;;;;;;5.52;71.56;97399.78;4947186;28;104126;-76
2024/01/05 02:50:29;;;;;;;11.07;4.53;;;;;;;5.42;71.88;97395.56;4953663;28;104270;-76
2024/01/05 02:52:57;;;;;;;7.80;4.22;;;;;;;5.38;72.08;97398.66;4945985;28;103318;-76
2024/01/05 02:55:25;;;;;;;8.65;4.47;;;;;;;5.38;72.08;97404.72;4964616;28;103353;-76
2024/01/05 02:57:53;;;;;;;9.65;4.10;;;;;;;5.37;71.94;97392.59;4944271;28;102748;-76
2024/01/05 03:00:22;;;;;;;6.50;3.80;;;;;;;5.33;72.19;97393.91;4948525;28;104347;-76
2024/01/05 03:02:50;;;;;;;9.98;4.72;;;;;;;5.22;72.53;97389.00;4953277;28;103217;-76
2024/01/05 03:05:21;;;;;;;8.88;4.90;;;;;;;5.38;72.21;97383.72;4953689;28;103014;-76
2024/01/05 03:07:49;;;;;;;8.07;4.25;;;;;;;5.36;72.15;97383.09;4949334;28;102726;-75
2024/01/05 03:10:17;;;;;;;8.32;4.07;;;;;;;5.31;71.95;97377.50;4953087;28;103490;-76
2024/01/05 03:12:45;;;;;;;8.82;3.83;;;;;;;5.30;72.37;97381.91;4945404;28;103483;-77
2024/01/05 03:15:13;;;;;;;8.30;3.78;;;;;;;5.19;72.68;97373.56;4953106;28;102780;-75
2024/01/05 03:17:42;;;;;;;8.30;3.08;;;;;;;5.10;72.39;97375.41;4950918;28;102679;-76
2024/01/05 03:20:11;;;;;;;8.27;3.92;;;;;;;5.10;72.71;97384.09;4947845;28;103282;-77
2024/01/05 03:22:38;;;;;;;9.77;4.38;;;;;;;5.18;72.55;97377.22;4942516;28;103426;-76
2024/01/05 03:25:07;;;;;;;4.63;2.88;;;;;;;5.24;72.63;97377.38;4940860;28;102652;-76
2024/01/05 03:27:35;;;;;;;8.13;3.00;;;;;;;5.30;72.19;97360.13;4969042;28;104169;-76
2024/01/05 03:30:03;;;;;;;12.18;3.80;;;;;;;5.34;71.97;97360.59;4954476;28;104179;-76
2024/01/05 03:32:31;;;;;;;4.28;2.50;;;;;;;5.29;72.00;97347.97;4950104;28;103401;-76
2024/01/05 03:35:00;;;;;;;7.60;3.95;;;;;;;5.28;71.59;97351.59;4948167;28;102655;-76
2024/01/05 03:37:28;;;;;;;9.82;3.20;;;;;;;5.25;72.05;97338.78;4944945;28;104310;-75
2024/01/05 03:39:56;;;;;;;7.50;3.10;;;;;;;5.32;71.57;97339.78;4957681;28;103231;-76
2024/01/05 03:42:24;;;;;;;3.97;2.25;;;;;;;5.38;71.49;97331.19;4954537;28;104079;-75
2024/01/05 03:44:52;;;;;;;7.00;2.95;;;;;;;5.37;71.38;97334.84;4972156;28;102831;-76
2024/01/05 03:47:20;;;;;;;5.72;2.42;;;;;;;5.35;71.31;97334.19;4970469;28;103446;-76
2024/01/05 03:49:48;;;;;;;5.78;2.83;;;;;;;5.35;71.41;97321.03;4949906;28;104203;-77
2024/01/05 03:52:18;;;;;;;5.13;3.28;;;;;;;5.35;71.50;97325.50;4960041;28;102745;-77
2024/01/05 03:54:46;;;;;;;8.10;3.25;;;;;;;5.28;71.16;97325.34;4951918;28;102685;-77
2024/01/05 03:57:14;;;;;;;7.43;3.40;;;;;;;5.35;71.38;97325.50;4951124;28;102643;-77
2024/01/05 03:59:42;;;;;;;5.78;2.80;;;;;;;5.42;71.47;97329.91;4947409;28;104090;-75
2024/01/05 04:02:11;;;;;;;7.70;3.67;;;;;;;5.47;70.85;97335.44;4952135;28;103263;-75
2024/01/05 04:04:40;;;;;;;5.15;2.40;;;;;;;5.49;72.00;97332.66;4951859;28;102803;-76
2024/01/05 04:07:08;;;;;;;5.47;2.35;;;;;;;5.57;70.20;97326.56;4952214;28;104133;-76
2024/01/05 04:09:38;;;;;;;6.57;2.67;;;;;;;5.68;68.96;97318.31;4952376;28;103413;-76
2024/01/05 04:12:06;;;;;;;4.68;2.10;;;;;;;5.78;69.17;97318.91;4950784;28;103254;-76
2024/01/05 04:14:37;;;;;;;6.75;1.95;;;;;;;5.91;68.24;97314.94;4953930;28;103086;-76
2024/01/05 04:17:07;;;;;;;5.00;2.20;;;;;;;5.98;67.88;97308.00;4949728;28;102641;-75
2024/01/05 04:19:38;;;;;;;3.65;1.80;;;;;;;6.02;68.14;97304.03;4941725;28;103030;-75
2024/01/05 04:22:07;;;;;;;5.47;2.20;;;;;;;6.08;67.61;97305.97;4968312;28;104281;-76
2024/01/05 04:24:35;;;;;;;4.05;2.10;;;;;;;6.09;67.89;97304.16;4955793;28;102616;-76
2024/01/05 04:27:09;;;;;;;5.05;2.30;;;;;;;6.18;67.46;97304.94;4950504;28;102953;-75
2024/01/05 04:29:38;;;;;;;2.90;1.80;;;;;;;6.20;66.83;97298.50;4951222;28;103305;-76
2024/01/05 04:32:07;;;;;;;7.97;2.25;;;;;;;6.23;66.22;97297.34;4948342;28;103234;-76
2024/01/05 04:34:34;;;;;;;6.97;2.03;;;;;;;6.29;66.03;97288.75;4955052;28;102618;-75
2024/01/05 04:37:03;;;;;;;5.53;1.90;;;;;;;6.36;66.12;97287.06;4957964;28;102716;-76
2024/01/05 04:39:31;;;;;;;5.13;2.22;;;;;;;6.38;65.85;97284.25;4952602;28;103291;-76
2024/01/05 04:41:59;;;;;;;3.63;2.05;;;;;;;6.43;65.81;97282.75;4950199;28;103179;-76
2024/01/05 04:44:29;;;;;;;4.85;2.28;;;;;;;6.47;65.61;97286.66;4961667;28;103023;-76
2024/01/05 04:46:57;;;;;;;3.50;2.10;;;;;;;6.55;64.60;97283.13;4956270;28;104247;-77
2024/01/05 04:49:26;;;;;;;4.57;1.88;;;;;;;6.58;64.50;97284.59;4958556;28;103286;-77
2024/01/05 04:51:57;;;;;;;6.88;2.92;;;;;;;6.61;63.75;97281.59;4967196;28;103251;-78
2024/01/05 04:54:26;;;;;;;5.18;2.20;;;;;;;6.63;64.05;97283.06;4950133;28;102570;-75
2024/01/05 04:56:54;;;;;;;2.70;1.50;;;;;;;6.66;64.45;97275.81;4951637;28;103790;-75
2024/01/05 04:59:23;;;;;;;3.38;1.85;;;;;;;6.67;64.54;97275.63;4948021;28;104082;-75
2024/01/05 05:01:59;;;;;;;6.03;2.42;;;;;;;6.69;64.40;97284.16;4950172;28;103217;-75
2024/01/05 05:04:30;;;;;;;5.68;1.67;;;;;;;6.65;64.47;97282.88;4968833;28;102860;-75
2024/01/05 05:06:58;;;;;;;4.85;1.80;;;;;;;6.69;64.03;97275.44;4951811;28;102980;-76
2024/01/05 05:09:28;;;;;;;2.47;1.42;;;;;;;6.70;63.89;97283.16;4959234;28;103859;-75
2024/01/05 05:11:58;;;;;;;3.78;1.75;;;;;;;6.70;63.52;97282.34;4952508;28;102598;-74
2024/01/05 05:14:26;;;;;;;3.60;1.70;;;;;;;6.70;64.51;97277.09;4955397;28;102675;-76
2024/01/05 05:16:55;;;;;;;5.85;1.95;;;;;;;6.72;63.86;97286.44;4947125;28;102753;-78
2024/01/05 05:19:23;;;;;;;3.63;1.50;;;;;;;6.71;64.07;97284.81;4944504;28;103034;-76
2024/01/05 05:21:51;;;;;;;2.92;1.85;;;;;;;6.71;63.91;97279.53;4941413;28;103223;-76
2024/01/05 05:24:19;;;;;;;5.25;1.90;;;;;;;6.68;64.30;97282.53;4948299;28;102914;-76
2024/01/05 05:26:50;;;;;;;2.88;1.50;;;;;;;6.71;64.50;97284.00;4946120;28;102629;-76
2024/01/05 05:29:21;;;;;;;4.57;2.20;;;;;;;6.70;64.42;97283.16;4953334;28;103490;-77
2024/01/05 05:31:48;;;;;;;3.25;1.80;;;;;;;6.71;63.61;97278.72;4953522;28;103291;-75
2024/01/05 05:34:18;;;;;;;2.85;1.40;;;;;;;6.72;63.42;97281.19;4953567;28;103919;-75
2024/01/05 05:36:49;;;;;;;5.28;1.90;;;;;;;6.71;63.90;97271.66;4948812;28;103113;-76
2024/01/05 05:39:17;;;;;;;4.75;2.05;;;;;;;6.70;63.18;97272.63;4948154;28;104230;-75
2024/01/05 05:41:48;;;;;;;5.55;2.15;;;;;;;6.74;63.04;97281.81;4954677;28;104360;-75
2024/01/05 05:44:18;;;;;;;3.92;2.00;;;;;;;6.74;63.50;97281.81;4948057;28;102860;-76
2024/01/05 05:46:46;;;;;;;5.50;1.95;;;;;;;6.75;63.73;97278.19;4946804;28;104138;-75
2024/01/05 05:49:14;;;;;;;5.10;1.70;;;;;;;6.81;62.87;97292.44;4946250;28;105190;-75
2024/01/05 05:51:44;;;;;;;4.07;1.55;;;;;;;6.79;63.59;97286.53;4943072;28;104263;-75
2024/01/05 05:54:13;;;;;;;5.38;2.00;;;;;;;6.83;62.54;97282.56;4947670;28;102743;-73
2024/01/05 05:56:46;;;;;;;3.38;1.60;;;;;;;6.86;62.90;97284.81;4940042;28;103146;-74
2024/01/05 05:59:15;;;;;;;2.85;1.60;;;;;;;6.85;63.24;97272.69;4952047;28;103005;-75
2024/01/05 06:01:44;;;;;;;4.40;1.70;;;;;;;6.88;63.18;97274.94;4947746;28;103420;-75
2024/01/05 06:04:13;;;;;;;2.53;1.60;;;;;;;6.89;63.03;97279.22;4962362;28;102714;-74
2024/01/05 06:06:46;;;;;;;3.10;1.80;;;;;;;6.93;62.94;97282.28;4948230;28;102826;-75
2024/01/05 06:09:14;;;;;;;6.93;2.20;;;;;;;6.91;63.00;97268.50;4947767;28;103917;-76
2024/01/05 06:11:43;;;;;;;7.68;2.55;;;;;;;6.86;63.28;97273.47;4949673;28;103005;-76
2024/01/05 06:14:12;;;;;;;5.38;2.90;;;;;;;6.88;62.98;97279.41;4954481;28;102926;-76
2024/01/05 06:16:40;;;;;;;4.72;1.83;;;;;;;6.90;63.42;97266.84;4953701;28;102657;-75
2024/01/05 06:19:09;;;;;;;3.97;1.90;;;;;;;6.88;62.87;97274.13;4955559;28;103297;-75
2024/01/05 06:21:37;;;;;;;3.45;1.80;;;;;;;6.86;62.95;97276.91;4950804;28;104270;-76
2024/01/05 06:24:06;;;;;;;3.15;2.03;;;;;;;6.87;63.67;97278.56;4973041;28;103017;-76
2024/01/05 06:26:34;;;;;;;6.35;2.03;;;;;;;6.86;63.08;97286.63;4950005;28;102812;-74
2024/01/05 06:29:02;;;;;;;3.20;1.70;;;;;;;6.85;63.28;97279.75;4954400;28;103936;-75
2024/01/05 06:31:30;;;;;;;3.88;1.40;;;;;;;6.84;63.80;97289.47;4949945;28;103282;-75
2024/01/05 06:33:58;;;;;;;4.00;1.83;;;;;;;6.85;63.51;97290.25;4949363;28;102647;-75
2024/01/05 06:36:30;;;;;;;2.80;1.73;;;;;;;6.83;63.73;97298.34;4966998;28;104143;-75
2024/01/05 06:38:58;;;;;;;5.32;1.80;;;;;;;6.83;63.35;97292.28;4952353;28;104213;-75
2024/01/05 06:41:31;;;;;;;3.28;1.80;;;;;;;6.83;63.44;97302.81;4952982;28;103203;-75
2024/01/05 06:44:02;;;;;;;3.13;1.58;;;;;;;6.78;64.13;97301.50;4947718;28;102691;-75
2024/01/05 06:46:30;;;;;;;3.75;1.85;;;;;;;6.78;63.66;97293.59;4940719;28;105157;-75
2024/01/05 06:49:00;;;;;;;4.45;1.50;;;;;;;6.75;64.21;97296.59;4968071;28;103390;-75
2024/01/05 06:51:39;;;;;;;3.53;1.65;;;;;;;6.74;64.25;97304.69;4947717;28;103396;-74
2024/01/05 06:54:07;;;;;;;3.10;1.70;;;;;;;6.70;64.78;97288.41;4944103;28;102756;-75
2024/01/05 06:56:37;;;;;;;5.45;2.53;;;;;;;6.71;64.08;97290.06;4946623;28;103167;-75
2024/01/05 06:59:05;;;;;;;4.65;2.35;;;;;;;6.67;64.11;97285.31;4948700;28;103743;-75
2024/01/05 07:01:33;;;;;;;4.35;2.15;;;;;;;6.63;65.02;97287.50;4944005;28;104746;-75
2024/01/05 07:04:01;;;;;;;4.95;1.98;;;;;;;6.66;64.50;97297.66;4952720;28;103194;-74
2024/01/05 07:06:29;;;;;;;4.15;1.85;;;;;;;6.63;64.44;97298.03;4948361;28;104260;-75
2024/01/05 07:08:58;;;;;;;5.57;2.20;;;;;;;6.64;64.13;97302.28;4950314;28;102950;-75
2024/01/05 07:11:26;;;;;;;4.03;2.03;;;;;;;6.62;64.48;97312.19;4938503;28;103196;-75
2024/01/05 07:13:55;;;;;;;4.80;1.80;;;;;;;6.63;64.91;97303.28;4968524;28;102741;-75
2024/01/05 07:16:23;;;;;;;3.63;2.03;;;;;;;6.62;64.41;97312.19;4949549;28;102850;-75
2024/01/05 07:18:51;;;;;;;2.92;1.60;;;;;;;6.62;64.56;97299.03;4951263;28;104571;-75
2024/01/05 07:21:19;;;;;;;3.95;1.65;;;;;;;6.61;64.86;97305.28;4950880;28;103185;-74
2024/01/05 07:23:47;;;;;;;3.60;1.75;;;;;;;6.57;64.89;97296.09;4959699;28;102704;-75
2024/01/05 07:26:20;;;;;;;8.77;2.13;;;;;;;6.56;64.60;97300.53;4951311;28;104414;-75
2024/01/05 07:28:48;;;;;;;3.60;1.73;;;;;;;6.51;65.04;97296.81;4951497;28;103558;-75
2024/01/05 07:31:22;;;;;;;5.43;2.50;;;;;;;6.51;65.10;97294.16;4951749;28;103383;-75
2024/01/05 07:33:50;;;;;;;6.32;2.40;;;;;;;6.47;65.20;97294.53;4957161;28;102651;-75
2024/01/05 07:36:18;;;;;;;4.57;2.40;;;;;;;6.41;65.39;97300.50;4946314;28;104168;-75
2024/01/05 07:38:46;;;;;;;3.90;2.10;;;;;;;6.37;65.42;97299.22;4960676;28;103217;-74
2024/01/05 07:41:16;;;;;;;3.35;1.85;;;;;;;6.32;65.99;97301.56;4961645;28;103165;-74
2024/01/05 07:43:44;;;;;;;4.03;2.15;;;;;;;6.35;66.47;97306.44;4948906;28;103649;-74
2024/01/05 07:46:12;;;;;;;3.20;1.90;;;;;;;6.34;66.02;97310.09;4947501;28;104379;-76
2024/01/05 07:48:42;;;;;;;3.60;1.77;;;;;;;6.34;66.04;97302.19;4945582;28;104293;-76
2024/01/05 07:51:13;;;;;;;4.30;2.08;;;;;;;6.35;65.85;97303.81;4953541;28;103261;-76
2024/01/05 07:53:41;;;;;;;3.25;1.70;;;;;;;6.34;66.12;97304.84;4948124;28;102744;-74
2024/01/05 07:56:12;;;;;;;3.90;2.20;;;;;;;6.36;65.95;97302.81;4946564;28;102916;-74
2024/01/05 07:58:40;;;;;;;3.65;2.00;;;;;;;6.35;66.33;97301.19;4944137;28;103493;-74
2024/01/05 08:01:08;;;;;;;3.17;1.70;;;;;;;6.35;66.72;97300.38;4944854;28;103171;-72
2024/01/05 08:03:36;;;;;;;4.00;1.98;;;;;;;6.38;66.63;97300.84;4963408;28;103179;-74
2024/01/05 08:06:06;;;;;;;3.55;1.67;;;;;;;6.36;66.45;97305.47;4945782;28;104290;-73
2024/01/05 08:08:34;;;;;;;4.03;2.10;;;;;;;6.41;66.66;97312.84;4940487;28;104059;-73
2024/01/05 08:11:02;;;;;;;3.55;1.80;;;;;;;6.45;66.68;97304.41;4947232;28;103409;-74
2024/01/05 08:13:32;;;;;;;3.40;1.77;;;;;;;6.49;67.05;97298.81;4943572;28;103519;-73
2024/01/05 08:16:00;;;;;;;3.58;1.77;;;;;;;6.57;66.54;97296.09;4951320;28;102643;-73
2024/01/05 08:18:29;;;;;;;2.95;1.77;;;;;;;6.59;66.55;97286.22;4944197;28;103327;-74
2024/01/05 08:20:56;;;;;;;4.95;1.98;;;;;;;6.64;66.78;97283.88;4942336;28;103702;-74
2024/01/05 08:23:28;;;;;;;7.03;2.00;;;;;;;6.69;66.43;97281.53;4949741;28;102820;-74
2024/01/05 08:26:01;;;;;;;3.60;2.08;;;;;;;6.75;66.42;97278.19;4942809;28;103887;-76
2024/01/05 08:28:35;;;;;;;4.13;1.70;;;;;;;6.83;66.20;97287.00;4953851;28;103074;-74
2024/01/05 08:31:06;;;;;;;4.60;1.77;;;;;;;6.90;66.34;97293.97;4946329;28;103447;-74
2024/01/05 08:33:34;;;;;;;4.22;2.30;;;;;;;6.91;65.98;97302.72;4945180;28;102645;-74
2024/01/05 08:36:08;;;;;;;4.57;2.33;;;;;;;6.99;66.33;97292.09;4942805;28;103249;-75
2024/01/05 08:38:37;;;;;;;8.60;2.90;;;;;;;6.98;65.94;97290.47;4940703;28;104177;-75
2024/01/05 08:41:05;;;;;;;4.65;2.45;;;;;;;6.99;66.28;97292.09;4949614;28;104280;-74
2024/01/05 08:43:33;;;;;;;7.18;2.80;;;;;;;6.91;67.21;97287.72;4943529;28;104390;-74
2024/01/05 08:46:05;;;;;;;9.00;3.63;;;;;;;6.95;66.44;97290.84;4947976;28;104004;-74
2024/01/05 08:48:33;;;;;;;7.70;3.88;;;;;;;6.88;66.34;97282.84;4952640;28;104403;-75
2024/01/05 08:51:01;;;;;;;6.80;3.53;;;;;;;6.92;66.95;97288.56;4946467;28;103236;-76
2024/01/05 08:53:29;;;;;;;8.43;3.58;;;;;;;6.88;66.94;97289.94;4957210;28;102661;-74
2024/01/05 08:56:00;;;;;;;9.32;4.05;;;;;;;7.04;65.87;97294.22;4945886;28;104063;-74
2024/01/05 08:58:28;;;;;;;5.80;3.05;;;;;;;7.06;67.03;97287.75;4940232;28;103439;-74
2024/01/05 09:00:56;;;;;;;7.88;3.67;;;;;;;7.14;66.46;97284.22;4947471;28;103382;-75
2024/01/05 09:03:24;;;;;;;6.35;2.95;;;;;;;7.18;67.19;97292.56;4947029;28;102675;-75
2024/01/05 09:05:52;;;;;;;5.18;2.85;;;;;;;7.16;66.54;97297.22;4948556;28;102721;-75
2024/01/05 09:08:20;;;;;;;7.15;3.20;;;;;;;7.13;67.03;97288.66;4949573;28;103291;-75
2024/01/05 09:10:48;;;;;;;4.95;2.83;;;;;;;7.20;67.14;97293.22;4955943;28;104295;-75
2024/01/05 09:13:17;;;;;;;4.03;2.45;;;;;;;7.19;66.77;97296.84;4945205;28;102754;-76
2024/01/05 09:15:46;;;;;;;4.55;2.65;;;;;;;7.23;66.43;97298.09;4946535;28;103960;-78
2024/01/05 09:18:16;;;;;;;6.40;2.83;;;;;;;7.24;66.51;97305.03;4962785;28;103967;-75
2024/01/05 09:20:51;;;;;;;4.82;2.83;;;;;;;7.30;67.03;97307.75;4948667;28;103717;-75
2024/01/05 09:23:19;;;;;;;6.68;3.00;;;;;;;7.31;67.34;97303.31;4949977;28;102641;-75
2024/01/05 09:25:47;;;;;;;5.30;2.30;;;;;;;7.25;67.71;97307.47;4948198;28;102985;-75
2024/01/05 09:28:15;;;;;;;4.72;2.60;;;;;;;7.35;67.42;97309.00;4946138;28;103335;-75
2024/01/05 09:30:44;;;;;;;5.30;2.63;;;;;;;7.38;67.05;97317.38;4950453;28;103898;-74
2024/01/05 09:33:12;;;;;;;5.00;2.45;;;;;;;7.42;67.26;97317.84;4942979;28;102811;-74
2024/01/05 09:35:41;;;;;;;6.93;3.00;;;;;;;7.49;66.88;97313.47;4941767;28;102685;-74
2024/01/05 09:38:09;;;;;;;5.07;2.50;;;;;;;7.52;66.18;97322.81;4951181;28;102988;-74
2024/01/05 09:40:39;;;;;;;4.13;2.20;;;;;;;7.56;67.09;97330.19;4948462;28;103824;-74
2024/01/05 09:43:07;;;;;;;4.10;2.38;;;;;;;7.61;66.45;97321.72;4940400;28;102767;-74
2024/01/05 09:45:36;;;;;;;6.88;2.67;;;;;;;7.66;66.59;97329.88;4942914;28;103049;-73
2024/01/05 09:48:08;;;;;;;5.85;2.70;;;;;;;7.71;66.31;97332.78;4928196;28;103217;-75
2024/01/05 09:50:37;;;;;;;4.03;2.40;;;;;;;7.73;66.20;97328.16;4941116;28;104743;-74
2024/01/05 09:53:09;;;;;;;5.60;2.40;;;;;;;7.75;65.88;97334.06;4937544;28;104245;-73
2024/01/05 09:55:37;;;;;;;3.45;1.80;;;;;;;7.83;65.39;97325.25;4944862;28;102998;-72
2024/01/05 09:58:05;;;;;;;6.00;2.83;;;;;;;7.88;65.05;97311.53;4935135;28;104110;-72
2024/01/05 10:00:34;;;;;;;7.35;3.95;;;;;;;7.91;64.31;97314.59;4947048;28;103278;-72
2024/01/05 10:03:09;;;;;;;4.90;2.75;;;;;;;7.96;65.20;97320.16;4934108;28;102731;-72
2024/01/05 10:05:37;;;;;;;5.63;2.63;;;;;;;8.01;64.96;97311.66;4943207;28;103848;-73
2024/01/05 10:08:06;;;;;;;7.00;3.05;;;;;;;7.90;64.84;97309.50;4934245;28;103502;-73
2024/01/05 10:10:48;;;;;;;7.90;3.33;;;;;;;8.01;64.82;97306.38;4944122;28;103296;-75
2024/01/05 10:13:17;;;;;;;4.93;2.78;;;;;;;8.08;65.41;97312.56;4942401;28;103181;-74
2024/01/05 10:15:55;;;;;;;3.72;2.28;;;;;;;8.17;64.75;97307.97;4929336;28;102679;-73
2024/01/05 10:18:25;;;;;;;6.60;2.40;;;;;;;8.22;65.41;97320.63;4943382;28;104239;-73
2024/01/05 10:20:55;;;;;;;4.75;2.20;;;;;;;8.28;65.01;97318.03;4936291;28;104336;-73
2024/01/05 10:23:23;;;;;;;4.03;2.20;;;;;;;8.32;65.22;97322.94;4946364;28;102759;-73
2024/01/05 10:25:51;;;;;;;4.57;2.20;;;;;;;8.34;64.70;97324.38;4955832;28;103101;-74
2024/01/05 10:28:31;;;;;;;7.47;2.97;;;;;;;8.39;64.16;97310.63;4941891;28;104416;-73
2024/01/05 10:31:11;;;;;;;4.55;2.70;;;;;;;8.40;64.10;97320.19;4954471;28;103592;-73
2024/01/05 10:33:51;;;;;;;4.93;2.83;;;;;;;8.44;64.21;97322.25;4951047;28;102612;-72
2024/01/05 10:36:20;;;;;;;5.93;2.92;;;;;;;8.52;64.11;97331.09;4945512;28;103116;-73
2024/01/05 10:38:49;;;;;;;4.45;2.10;;;;;;;8.51;63.83;97321.53;4943046;28;103346;-73
2024/01/05 10:41:21;;;;;;;4.20;2.28;;;;;;;8.56;63.41;97313.88;4947414;28;103207;-76
2024/01/05 10:43:50;;;;;;;4.15;2.33;;;;;;;8.63;62.94;97310.28;4942513;28;102739;-75
2024/01/05 10:46:20;;;;;;;5.40;2.22;;;;;;;8.66;62.77;97314.38;4942450;28;104087;-74
2024/01/05 10:48:51;;;;;;;4.78;2.33;;;;;;;8.75;63.44;97313.22;4947127;28;103300;-76
2024/01/05 10:51:19;;;;;;;4.43;1.95;;;;;;;8.86;63.58;97308.44;4941195;28;103179;-75
2024/01/05 10:53:47;;;;;;;4.25;1.90;;;;;;;8.92;63.80;97307.66;4944117;28;102804;-74
2024/01/05 10:56:18;;;;;;;2.83;1.90;;;;;;;8.92;62.52;97305.03;4949128;28;103089;-75
2024/01/05 10:58:48;;;;;;;4.43;1.55;;;;;;;9.01;63.05;97300.41;4959427;28;103234;-75
2024/01/05 11:01:19;;;;;;;4.60;1.77;;;;;;;9.09;62.94;97297.63;4951417;28;103296;-81
2024/01/05 11:03:53;;;;;;;3.92;1.63;;;;;;;9.13;62.25;97291.78;4948883;28;102686;-74
2024/01/05 11:06:22;;;;;;;8.13;2.53;;;;;;;9.15;61.86;97285.50;4946389;28;103025;-74
2024/01/05 11:09:07;;;;;;;4.93;2.50;;;;;;;9.20;61.92;97283.88;4948494;28;104449;-74
2024/01/05 11:11:49;;;;;;;4.07;2.00;;;;;;;9.20;62.25;97288.38;4945286;28;103344;-74
2024/01/05 11:14:35;;;;;;;6.40;2.22;;;;;;;9.24;61.80;97277.19;4948857;28;102762;-73
2024/01/05 11:17:23;;;;;;;6.90;2.42;;;;;;;9.29;61.83;97268.72;4940700;28;102839;-74
2024/01/05 11:20:00;;;;;;;4.10;2.40;;;;;;;9.32;61.85;97280.72;4951890;28;103238;-74
2024/01/05 11:22:31;;;;;;;4.72;1.80;;;;;;;9.28;62.04;97269.72;4940124;28;103195;-74
2024/01/05 11:25:03;;;;;;;5.65;2.88;;;;;;;9.29;62.08;97277.44;4958935;28;102972;-75
2024/01/05 11:27:34;;;;;;;7.00;3.08;;;;;;;9.36;61.93;97280.09;4945955;28;103408;-74
2024/01/05 11:30:03;;;;;;;4.68;2.55;;;;;;;9.38;61.96;97282.56;4943597;28;104288;-72
2024/01/05 11:32:37;;;;;;;5.07;2.63;;;;;;;9.41;62.04;97285.63;4941548;28;103318;-74
2024/01/05 11:35:52;;;;;;;5.25;2.08;;;;;;;9.38;61.47;97275.47;4944628;28;103125;-72
2024/01/05 11:38:30;;;;;;;3.05;1.80;;;;;;;9.46;62.03;97271.84;4945643;28;102628;-74
2024/01/05 11:41:00;;;;;;;5.90;2.20;;;;;;;9.50;62.09;97278.38;4949203;28;104062;-74
2024/01/05 11:43:37;;;;;;;4.63;2.20;;;;;;;9.50;61.95;97272.25;4941562;28;103290;-73
2024/01/05 11:46:06;;;;;;;2.50;2.00;;;;;;;9.50;62.39;97274.88;4933681;28;103769;-73